createdAt,value
2016-02-26T00:00:15.451Z,0
2016-02-26T00:01:15.453Z,0
2016-02-26T00:02:15.441Z,0
2016-02-26T00:03:15.443Z,0
2016-02-26T00:04:15.446Z,0
2016-02-26T00:05:15.417Z,0
2016-02-26T00:06:15.420Z,0
2016-02-26T00:07:15.438Z,0
2016-02-26T00:08:15.425Z,0
2016-02-26T00:09:15.396Z,0
2016-02-26T00:10:15.430Z,0
2016-02-26T00:11:15.464Z,0
2016-02-26T00:12:15.389Z,0
2016-02-26T00:13:15.376Z,0
2016-02-26T00:14:15.394Z,0
2016-02-26T00:15:15.351Z,0
2016-02-26T00:16:15.400Z,0
2016-02-26T00:17:15.372Z,0
2016-02-26T00:18:15.342Z,0
2016-02-26T00:19:15.361Z,0
2016-02-26T00:20:15.348Z,0
2016-02-26T00:21:15.383Z,0
2016-02-26T00:22:15.353Z,0
2016-02-26T00:23:15.341Z,0
2016-02-26T00:24:15.327Z,0
2016-02-26T00:25:15.330Z,0
2016-02-26T00:26:15.302Z,0
2016-02-26T00:27:15.351Z,0
2016-02-26T00:28:15.323Z,0
2016-02-26T00:29:15.341Z,0
2016-02-26T00:30:15.281Z,0
2016-02-26T00:31:15.299Z,0
2016-02-26T00:32:15.287Z,0
2016-02-26T00:33:15.290Z,0
2016-02-26T00:34:15.276Z,0
2016-02-26T00:35:15.263Z,0
2016-02-26T00:36:15.266Z,0
2016-02-26T00:37:15.253Z,0
2016-02-26T00:38:15.256Z,0
2016-02-26T00:39:15.242Z,0
2016-02-26T00:40:15.261Z,0
2016-02-26T00:41:15.248Z,0
2016-02-26T00:42:15.251Z,0
2016-02-26T00:43:15.253Z,0
2016-02-26T00:44:15.225Z,0
2016-02-26T00:45:15.243Z,0
2016-02-26T00:46:15.215Z,0
2016-02-26T00:47:15.217Z,0
2016-02-26T00:48:15.189Z,0
2016-02-26T00:49:15.191Z,0
2016-02-26T00:50:14.460Z,0
2016-02-26T00:51:15.197Z,0
2016-02-26T00:52:15.200Z,0
2016-02-26T00:53:15.172Z,0
2016-02-26T00:54:15.189Z,0
2016-02-26T00:55:15.161Z,0
2016-02-26T00:56:15.194Z,0
2016-02-26T00:57:15.150Z,0
2016-02-26T00:58:15.138Z,0
2016-02-26T00:59:15.141Z,0
2016-02-26T01:00:15.175Z,0
2016-02-26T01:01:15.161Z,0
2016-02-26T01:02:15.132Z,0
2016-02-26T01:03:15.120Z,0
2016-02-26T01:04:15.124Z,0
2016-02-26T01:05:15.110Z,0
2016-02-26T01:06:15.129Z,0
2016-02-26T01:07:15.099Z,0
2016-02-26T01:08:15.102Z,0
2016-02-26T01:09:15.104Z,0
2016-02-26T01:10:15.076Z,0
2016-02-26T01:11:15.079Z,0
2016-02-26T01:12:15.086Z,0
2016-02-26T01:13:15.045Z,0
2016-02-26T01:14:15.067Z,0
2016-02-26T01:15:15.011Z,0
2016-02-26T01:16:15.032Z,0
2016-02-26T01:17:14.999Z,0
2016-02-26T01:18:14.981Z,0
2016-02-26T01:19:14.965Z,0
2016-02-26T01:20:14.978Z,0
2016-02-26T01:21:14.945Z,0
2016-02-26T01:22:14.931Z,0
2016-02-26T01:23:14.932Z,0
2016-02-26T01:24:14.918Z,0
2016-02-26T01:25:14.919Z,0
2016-02-26T01:26:14.904Z,0
2016-02-26T01:27:14.906Z,0
2016-02-26T01:28:14.892Z,0
2016-02-26T01:29:14.894Z,0
2016-02-26T01:30:14.881Z,0
2016-02-26T01:31:14.867Z,0
2016-02-26T01:32:14.869Z,0
2016-02-26T01:33:14.857Z,0
2016-02-26T01:34:14.843Z,0
2016-02-26T01:35:14.863Z,0
2016-02-26T01:36:14.849Z,0
2016-02-26T01:37:14.852Z,0
2016-02-26T01:38:14.885Z,0
2016-02-26T01:39:14.904Z,0
2016-02-26T01:40:14.813Z,0
2016-02-26T01:41:14.816Z,0
2016-02-26T01:42:14.834Z,0
2016-02-26T01:43:14.805Z,0
2016-02-26T01:44:14.637Z,0
2016-02-26T01:45:14.795Z,0
2016-02-26T01:46:14.798Z,0
2016-02-26T01:47:14.801Z,0
2016-02-26T01:48:14.788Z,0
2016-02-26T01:49:14.775Z,0
2016-02-26T01:50:14.778Z,0
2016-02-26T01:51:14.764Z,0
2016-02-26T01:52:14.751Z,0
2016-02-26T01:53:14.770Z,0
2016-02-26T01:54:14.742Z,0
2016-02-26T01:55:14.775Z,0
2016-02-26T01:56:14.794Z,0
2016-02-26T01:57:14.734Z,0
2016-02-26T01:58:14.753Z,0
2016-02-26T01:59:14.739Z,0
2016-02-26T02:00:14.711Z,0
2016-02-26T02:01:14.760Z,0
2016-02-26T02:02:14.700Z,0
2016-02-26T02:03:14.703Z,0
2016-02-26T02:04:14.690Z,0
2016-02-26T02:05:14.677Z,0
2016-02-26T02:06:14.696Z,0
2016-02-26T02:07:14.667Z,0
2016-02-26T02:08:14.669Z,0
2016-02-26T02:09:14.688Z,0
2016-02-26T02:10:14.659Z,0
2016-02-26T02:11:14.647Z,0
2016-02-26T02:12:14.649Z,0
2016-02-26T02:13:14.652Z,0
2016-02-26T02:14:14.623Z,0
2016-02-26T02:15:14.626Z,0
2016-02-26T02:16:14.613Z,0
2016-02-26T02:17:14.615Z,0
2016-02-26T02:18:14.618Z,0
2016-02-26T02:19:14.606Z,0
2016-02-26T02:20:14.608Z,0
2016-02-26T02:21:14.595Z,0
2016-02-26T02:22:14.598Z,0
2016-02-26T02:23:14.600Z,0
2016-02-26T02:24:14.603Z,0
2016-02-26T02:25:14.590Z,0
2016-02-26T02:26:14.593Z,0
2016-02-26T02:27:14.580Z,0
2016-02-26T02:28:14.551Z,0
2016-02-26T02:29:14.554Z,0
2016-02-26T02:30:14.542Z,0
2016-02-26T02:31:14.528Z,0
2016-02-26T02:32:14.531Z,0
2016-02-26T02:33:14.533Z,0
2016-02-26T02:34:14.537Z,0
2016-02-26T02:35:14.524Z,0
2016-02-26T02:36:14.527Z,0
2016-02-26T02:37:14.513Z,0
2016-02-26T02:38:14.516Z,0
2016-02-26T02:39:14.487Z,0
2016-02-26T02:40:14.490Z,0
2016-02-26T02:41:14.493Z,0
2016-02-26T02:42:14.464Z,0
2016-02-26T02:43:14.499Z,0
2016-02-26T02:44:14.454Z,0
2016-02-26T02:45:14.456Z,0
2016-02-26T02:46:14.459Z,0
2016-02-26T02:47:14.463Z,0
2016-02-26T02:48:14.465Z,0
2016-02-26T02:49:14.437Z,0
2016-02-26T02:50:14.423Z,0
2016-02-26T02:51:14.426Z,0
2016-02-26T02:52:14.397Z,0
2016-02-26T02:53:14.431Z,0
2016-02-26T02:54:14.418Z,0
2016-02-26T02:55:14.406Z,0
2016-02-26T02:56:14.424Z,0
2016-02-26T02:57:14.395Z,0
2016-02-26T02:58:14.381Z,0
2016-02-26T02:59:14.369Z,0
2016-02-26T03:00:14.388Z,0
2016-02-26T03:01:14.359Z,0
2016-02-26T03:02:14.362Z,0
2016-02-26T03:03:14.364Z,0
2016-02-26T03:04:14.352Z,0
2016-02-26T03:05:14.344Z,0
2016-02-26T03:06:14.455Z,0
2016-02-26T03:07:14.177Z,0
2016-02-26T03:08:14.336Z,0
2016-02-26T03:09:14.339Z,0
2016-02-26T03:10:14.311Z,0
2016-02-26T03:11:14.313Z,0
2016-02-26T03:12:14.301Z,0
2016-02-26T03:13:14.319Z,0
2016-02-26T03:14:14.306Z,0
2016-02-26T03:15:14.294Z,0
2016-02-26T03:16:14.343Z,0
2016-02-26T03:17:14.283Z,0
2016-02-26T03:18:14.269Z,0
2016-02-26T03:19:14.272Z,0
2016-02-26T03:20:14.260Z,0
2016-02-26T03:21:14.263Z,0
2016-02-26T03:22:14.249Z,0
2016-02-26T03:23:14.268Z,0
2016-02-26T03:24:14.239Z,0
2016-02-26T03:25:14.274Z,0
2016-02-26T03:26:14.229Z,0
2016-02-26T03:27:14.232Z,0
2016-02-26T03:28:14.250Z,0
2016-02-26T03:29:14.221Z,0
2016-02-26T03:30:14.209Z,0
2016-02-26T03:31:14.227Z,0
2016-02-26T03:32:14.198Z,0
2016-02-26T03:33:14.185Z,0
2016-02-26T03:34:14.187Z,0
2016-02-26T03:35:14.175Z,0
2016-02-26T03:36:14.193Z,0
2016-02-26T03:37:14.180Z,0
2016-02-26T03:38:14.184Z,0
2016-02-26T03:39:14.170Z,0
2016-02-26T03:40:14.158Z,0
2016-02-26T03:41:14.144Z,0
2016-02-26T03:42:14.209Z,0
2016-02-26T03:43:14.166Z,0
2016-02-26T03:44:14.137Z,0
2016-02-26T03:45:14.139Z,0
2016-02-26T03:46:14.142Z,0
2016-02-26T03:47:14.113Z,0
2016-02-26T03:48:14.116Z,0
2016-02-26T03:49:14.119Z,0
2016-02-26T03:50:14.137Z,0
2016-02-26T03:51:14.109Z,0
2016-02-26T03:52:14.111Z,0
2016-02-26T03:53:14.082Z,0
2016-02-26T03:54:14.085Z,0
2016-02-26T03:55:13.385Z,0
2016-02-26T03:56:14.107Z,0
2016-02-26T03:57:14.063Z,0
2016-02-26T03:58:14.096Z,0
2016-02-26T03:59:14.052Z,0
2016-02-26T04:00:14.070Z,0
2016-02-26T04:01:15.245Z,0
2016-02-26T04:02:14.045Z,0
2016-02-26T04:03:14.063Z,0
2016-02-26T04:04:14.018Z,0
2016-02-26T04:05:14.037Z,0
2016-02-26T04:06:14.055Z,0
2016-02-26T04:07:14.026Z,0
2016-02-26T04:08:13.342Z,0
2016-02-26T04:09:14.016Z,0
2016-02-26T04:10:14.003Z,0
2016-02-26T04:11:14.006Z,0
2016-02-26T04:12:13.993Z,0
2016-02-26T04:13:14.042Z,0
2016-02-26T04:14:13.968Z,0
2016-02-26T04:15:13.986Z,0
2016-02-26T04:16:13.973Z,0
2016-02-26T04:17:13.850Z,0
2016-02-26T04:18:13.963Z,0
2016-02-26T04:19:13.980Z,0
2016-02-26T04:20:13.952Z,0
2016-02-26T04:21:15.768Z,0
2016-02-26T04:22:13.958Z,0
2016-02-26T04:23:14.054Z,0
2016-02-26T04:24:13.947Z,0
2016-02-26T04:25:13.934Z,0
2016-02-26T04:26:14.218Z,0
2016-02-26T04:27:13.925Z,0
2016-02-26T04:28:13.958Z,0
2016-02-26T04:29:13.915Z,0
2016-02-26T04:30:13.917Z,0
2016-02-26T04:31:13.904Z,0
2016-02-26T04:32:13.922Z,0
2016-02-26T04:33:13.957Z,0
2016-02-26T04:34:30.662Z,0
2016-02-26T04:35:13.884Z,0
2016-02-26T04:36:13.886Z,0
2016-02-26T04:37:13.889Z,0
2016-02-26T04:38:13.875Z,0
2016-02-26T04:39:13.862Z,0
2016-02-26T04:40:13.866Z,0
2016-02-26T04:41:13.868Z,0
2016-02-26T04:42:13.839Z,0
2016-02-26T04:43:13.889Z,0
2016-02-26T04:44:13.876Z,0
2016-02-26T04:45:13.848Z,0
2016-02-26T04:46:13.836Z,0
2016-02-26T04:47:13.822Z,0
2016-02-26T04:48:13.841Z,0
2016-02-26T04:49:13.874Z,0
2016-02-26T04:50:13.814Z,0
2016-02-26T04:51:13.816Z,0
2016-02-26T04:52:14.257Z,0
2016-02-26T04:53:13.808Z,0
2016-02-26T04:54:13.935Z,0
2016-02-26T04:55:15.921Z,0
2016-02-26T04:56:13.815Z,0
2016-02-26T04:57:13.785Z,0
2016-02-26T04:58:13.821Z,0
2016-02-26T04:59:13.839Z,0
2016-02-26T05:00:14.513Z,0
2016-02-26T05:01:13.110Z,0
2016-02-26T05:02:13.753Z,0
2016-02-26T05:03:13.787Z,0
2016-02-26T05:04:13.789Z,0
2016-02-26T05:05:13.751Z,0
2016-02-26T05:06:13.754Z,0
2016-02-26T05:07:13.757Z,0
2016-02-26T05:08:13.728Z,0
2016-02-26T05:09:13.731Z,0
2016-02-26T05:10:13.749Z,0
2016-02-26T05:11:13.752Z,0
2016-02-26T05:12:13.707Z,0
2016-02-26T05:13:13.570Z,0
2016-02-26T05:14:13.713Z,0
2016-02-26T05:15:13.715Z,0
2016-02-26T05:16:13.718Z,0
2016-02-26T05:17:13.548Z,0
2016-02-26T05:18:13.693Z,0
2016-02-26T05:19:13.695Z,0
2016-02-26T05:20:13.526Z,0
2016-02-26T05:21:13.684Z,0
2016-02-26T05:22:13.672Z,0
2016-02-26T05:23:13.675Z,0
2016-02-26T05:24:13.802Z,0
2016-02-26T05:25:13.680Z,0
2016-02-26T05:26:13.495Z,0
2016-02-26T05:27:13.655Z,0
2016-02-26T05:28:13.547Z,4
2016-02-26T05:29:13.644Z,0
2016-02-26T05:30:13.630Z,0
2016-02-26T05:31:13.634Z,4
2016-02-26T05:32:13.636Z,0
2016-02-26T05:33:13.638Z,4
2016-02-26T05:34:13.485Z,4
2016-02-26T05:35:13.644Z,4
2016-02-26T05:36:13.632Z,4
2016-02-26T05:37:13.603Z,8
2016-02-26T05:38:13.605Z,8
2016-02-26T05:39:13.608Z,12
2016-02-26T05:40:13.610Z,16
2016-02-26T05:41:13.613Z,20
2016-02-26T05:42:13.600Z,24
2016-02-26T05:43:13.587Z,28
2016-02-26T05:44:13.621Z,28
2016-02-26T05:45:13.578Z,36
2016-02-26T05:46:13.424Z,40
2016-02-26T05:47:13.567Z,48
2016-02-26T05:48:13.570Z,60
2016-02-26T05:49:13.589Z,64
2016-02-26T05:50:13.576Z,72
2016-02-26T05:51:13.562Z,80
2016-02-26T05:52:13.550Z,96
2016-02-26T05:53:13.568Z,116
2016-02-26T05:54:13.571Z,128
2016-02-26T05:55:13.542Z,140
2016-02-26T05:56:13.560Z,144
2016-02-26T05:57:13.376Z,148
2016-02-26T05:58:13.534Z,160
2016-02-26T05:59:13.521Z,180
2016-02-26T06:00:13.524Z,196
2016-02-26T06:01:13.511Z,212
2016-02-26T06:02:13.514Z,224
2016-02-26T06:03:13.486Z,248
2016-02-26T06:04:13.504Z,268
2016-02-26T06:05:13.522Z,300
2016-02-26T06:06:13.337Z,336
2016-02-26T06:07:13.496Z,388
2016-02-26T06:08:13.499Z,440
2016-02-26T06:09:13.502Z,476
2016-02-26T06:10:13.488Z,492
2016-02-26T06:11:13.476Z,496
2016-02-26T06:12:13.478Z,512
2016-02-26T06:13:13.465Z,536
2016-02-26T06:14:13.484Z,564
2016-02-26T06:15:13.455Z,572
2016-02-26T06:16:13.443Z,564
2016-02-26T06:17:13.445Z,532
2016-02-26T06:18:13.448Z,512
2016-02-26T06:19:13.450Z,508
2016-02-26T06:20:13.437Z,520
2016-02-26T06:21:13.424Z,548
2016-02-26T06:22:13.443Z,604
2016-02-26T06:23:13.430Z,676
2016-02-26T06:24:13.433Z,768
2016-02-26T06:25:13.435Z,852
2016-02-26T06:26:13.422Z,920
2016-02-26T06:27:13.425Z,1000
2016-02-26T06:28:13.411Z,1128
2016-02-26T06:29:13.415Z,1272
2016-02-26T06:30:13.386Z,1388
2016-02-26T06:31:13.405Z,1492
2016-02-26T06:32:13.375Z,1616
2016-02-26T06:33:13.394Z,1732
2016-02-26T06:34:13.380Z,1840
2016-02-26T06:35:13.384Z,1996
2016-02-26T06:36:13.386Z,2120
2016-02-26T06:37:13.374Z,2220
2016-02-26T06:38:13.360Z,2452
2016-02-26T06:39:13.363Z,2708
2016-02-26T06:40:13.365Z,2928
2016-02-26T06:41:13.354Z,3028
2016-02-26T06:42:13.415Z,3144
2016-02-26T06:43:13.355Z,3184
2016-02-26T06:44:13.341Z,2980
2016-02-26T06:45:13.344Z,2712
2016-02-26T06:46:13.348Z,2436
2016-02-26T06:47:13.334Z,2148
2016-02-26T06:48:13.336Z,1988
2016-02-26T06:49:13.355Z,1948
2016-02-26T06:50:13.327Z,1992
2016-02-26T06:51:13.330Z,2048
2016-02-26T06:52:13.332Z,2104
2016-02-26T06:53:13.319Z,2144
2016-02-26T06:54:13.322Z,2144
2016-02-26T06:55:13.309Z,2124
2016-02-26T06:56:13.327Z,2116
2016-02-26T06:57:13.298Z,2144
2016-02-26T06:58:13.301Z,2244
2016-02-26T06:59:13.288Z,2312
2016-02-26T07:00:13.291Z,2316
2016-02-26T07:01:13.279Z,2320
2016-02-26T07:02:13.281Z,2404
2016-02-26T07:03:13.299Z,2496
2016-02-26T07:04:13.286Z,2596
2016-02-26T07:05:13.289Z,2616
2016-02-26T07:06:13.276Z,2632
2016-02-26T07:07:13.295Z,2572
2016-02-26T07:08:13.266Z,2592
2016-02-26T07:09:13.253Z,2560
2016-02-26T07:10:13.255Z,2548
2016-02-26T07:11:13.273Z,2540
2016-02-26T07:12:13.277Z,2544
2016-02-26T07:13:13.248Z,2604
2016-02-26T07:14:13.251Z,2732
2016-02-26T07:15:13.237Z,2860
2016-02-26T07:16:13.240Z,2996
2016-02-26T07:17:13.242Z,3128
2016-02-26T07:18:13.230Z,3208
2016-02-26T07:19:13.232Z,3272
2016-02-26T07:20:13.220Z,3468
2016-02-26T07:21:13.239Z,3652
2016-02-26T07:22:13.225Z,3700
2016-02-26T07:23:13.228Z,3840
2016-02-26T07:24:13.215Z,4052
2016-02-26T07:25:13.219Z,4140
2016-02-26T07:26:13.267Z,4148
2016-02-26T07:27:13.224Z,4208
2016-02-26T07:28:13.210Z,4336
2016-02-26T07:29:13.197Z,4524
2016-02-26T07:30:13.215Z,4752
2016-02-26T07:31:13.202Z,5024
2016-02-26T07:32:13.189Z,5320
2016-02-26T07:33:13.224Z,5508
2016-02-26T07:34:12.524Z,5520
2016-02-26T07:35:13.182Z,5472
2016-02-26T07:36:13.185Z,5568
2016-02-26T07:37:13.171Z,5788
2016-02-26T07:38:13.174Z,6008
2016-02-26T07:39:13.177Z,6280
2016-02-26T07:40:13.180Z,6492
2016-02-26T07:41:13.198Z,6736
2016-02-26T07:42:13.185Z,7012
2016-02-26T07:43:13.187Z,7180
2016-02-26T07:44:13.190Z,7232
2016-02-26T07:45:13.161Z,7180
2016-02-26T07:46:13.150Z,7012
2016-02-26T07:47:13.153Z,6920
2016-02-26T07:48:13.201Z,6756
2016-02-26T07:49:13.142Z,6668
2016-02-26T07:50:13.128Z,6536
2016-02-26T07:51:13.225Z,6464
2016-02-26T07:52:13.149Z,6348
2016-02-26T07:53:14.512Z,6264
2016-02-26T07:54:14.655Z,6088
2016-02-26T07:55:13.424Z,6168
2016-02-26T07:56:15.301Z,6128
2016-02-26T07:57:14.585Z,6040
2016-02-26T07:58:13.602Z,5960
2016-02-26T07:59:13.560Z,5676
2016-02-26T08:00:16.625Z,5368
2016-02-26T08:01:13.924Z,5284
2016-02-26T08:02:13.661Z,5168
2016-02-26T08:03:13.366Z,4984
2016-02-26T08:04:14.291Z,4864
2016-02-26T08:05:14.621Z,4836
2016-02-26T08:06:13.124Z,4784
2016-02-26T08:07:13.112Z,4684
2016-02-26T08:08:13.099Z,4544
2016-02-26T08:09:13.118Z,4488
2016-02-26T08:10:13.089Z,4516
2016-02-26T08:11:13.107Z,4760
2016-02-26T08:12:13.095Z,4772
2016-02-26T08:13:13.097Z,5012
2016-02-26T08:14:13.084Z,5344
2016-02-26T08:15:13.087Z,5740
2016-02-26T08:16:13.105Z,6240
2016-02-26T08:17:13.092Z,7016
2016-02-26T08:18:13.095Z,7080
2016-02-26T08:19:13.081Z,6736
2016-02-26T08:20:13.084Z,6500
2016-02-26T08:21:12.915Z,6376
2016-02-26T08:22:13.996Z,6568
2016-02-26T08:23:13.936Z,6672
2016-02-26T08:24:13.845Z,6960
2016-02-26T08:25:14.223Z,7328
2016-02-26T08:26:14.616Z,7252
2016-02-26T08:27:15.072Z,7212
2016-02-26T08:28:14.247Z,7196
2016-02-26T08:29:14.374Z,7152
2016-02-26T08:30:13.955Z,7100
2016-02-26T08:31:13.364Z,7388
2016-02-26T08:32:13.726Z,7996
2016-02-26T08:33:14.166Z,8460
2016-02-26T08:34:13.825Z,8772
2016-02-26T08:35:14.640Z,9044
2016-02-26T08:36:13.987Z,9136
2016-02-26T08:37:13.865Z,9008
2016-02-26T08:38:14.164Z,8692
2016-02-26T08:39:13.776Z,8476
2016-02-26T08:40:13.340Z,8176
2016-02-26T08:41:13.031Z,7880
2016-02-26T08:42:14.550Z,7656
2016-02-26T08:43:15.443Z,7568
2016-02-26T08:44:13.570Z,7264
2016-02-26T08:45:14.918Z,6872
2016-02-26T08:46:14.498Z,6496
2016-02-26T08:47:15.626Z,6240
2016-02-26T08:48:13.941Z,6308
2016-02-26T08:49:13.881Z,6540
2016-02-26T08:50:14.212Z,6884
2016-02-26T08:51:15.761Z,7392
2016-02-26T08:52:14.373Z,7696
2016-02-26T08:53:16.345Z,7976
2016-02-26T08:54:14.894Z,8436
2016-02-26T08:55:15.053Z,8856
2016-02-26T08:56:13.791Z,9616
2016-02-26T08:57:14.091Z,10156
2016-02-26T08:58:15.358Z,10560
2016-02-26T08:59:15.549Z,10900
2016-02-26T09:00:16.427Z,11180
2016-02-26T09:01:13.007Z,11436
2016-02-26T09:02:13.010Z,11704
2016-02-26T09:03:12.997Z,11948
2016-02-26T09:04:12.985Z,12296
2016-02-26T09:05:12.846Z,12668
2016-02-26T09:06:12.990Z,12916
2016-02-26T09:07:13.008Z,13044
2016-02-26T09:08:13.057Z,13236
2016-02-26T09:09:12.982Z,13436
2016-02-26T09:10:13.001Z,13708
2016-02-26T09:11:13.003Z,13724
2016-02-26T09:12:12.990Z,13832
2016-02-26T09:13:12.977Z,13436
2016-02-26T09:14:13.011Z,12984
2016-02-26T09:15:13.217Z,12784
2016-02-26T09:16:12.985Z,12412
2016-02-26T09:17:12.973Z,11892
2016-02-26T09:18:13.006Z,11292
2016-02-26T09:19:12.978Z,11276
2016-02-26T09:20:12.996Z,11224
2016-02-26T09:21:12.983Z,11188
2016-02-26T09:22:12.970Z,11292
2016-02-26T09:23:12.878Z,11472
2016-02-26T09:24:12.975Z,11376
2016-02-26T09:25:28.353Z,10984
2016-02-26T09:26:12.746Z,11652
2016-02-26T09:27:12.967Z,12180
2016-02-26T09:28:12.986Z,11812
2016-02-26T09:29:13.036Z,12208
2016-02-26T09:30:12.991Z,13008
2016-02-26T09:31:12.994Z,13184
2016-02-26T09:32:12.981Z,13236
2016-02-26T09:33:13.015Z,12992
2016-02-26T09:34:12.971Z,13032
2016-02-26T09:35:12.974Z,13104
2016-02-26T09:36:12.976Z,13424
2016-02-26T09:37:12.994Z,13616
2016-02-26T09:38:13.715Z,13456
2016-02-26T09:39:27.063Z,12968
2016-02-26T09:40:12.971Z,12776
2016-02-26T09:41:13.068Z,12772
2016-02-26T09:42:13.243Z,12836
2016-02-26T09:43:13.448Z,12900
2016-02-26T09:44:13.279Z,12736
2016-02-26T09:45:13.422Z,12540
2016-02-26T09:46:13.191Z,12300
2016-02-26T09:47:13.350Z,12068
2016-02-26T09:48:13.164Z,11676
2016-02-26T09:49:13.230Z,11260
2016-02-26T09:50:13.170Z,11008
2016-02-26T09:51:13.189Z,10936
2016-02-26T09:52:13.192Z,11056
2016-02-26T09:53:13.476Z,11208
2016-02-26T09:54:13.197Z,11308
2016-02-26T09:55:13.450Z,11396
2016-02-26T09:56:13.343Z,11600
2016-02-26T09:57:13.392Z,11876
2016-02-26T09:58:13.255Z,11980
2016-02-26T09:59:13.053Z,11932
2016-02-26T10:00:13.400Z,11808
2016-02-26T10:01:13.466Z,11500
2016-02-26T10:02:13.296Z,10712
2016-02-26T10:03:12.518Z,10284
2016-02-26T10:04:13.380Z,9856
2016-02-26T10:05:13.288Z,9388
2016-02-26T10:06:13.369Z,9176
2016-02-26T10:07:13.388Z,8888
2016-02-26T10:08:13.312Z,8940
2016-02-26T10:09:13.237Z,9376
2016-02-26T10:10:13.270Z,10160
2016-02-26T10:11:13.258Z,11108
2016-02-26T10:12:12.979Z,11760
2016-02-26T10:13:12.998Z,12052
2016-02-26T10:14:12.844Z,12364
2016-02-26T10:15:12.988Z,12760
2016-02-26T10:16:12.990Z,13156
2016-02-26T10:17:12.990Z,13508
2016-02-26T10:18:12.965Z,13740
2016-02-26T10:19:12.955Z,13812
2016-02-26T10:20:12.996Z,13624
2016-02-26T10:21:12.940Z,13368
2016-02-26T10:22:12.931Z,13012
2016-02-26T10:23:12.930Z,12660
2016-02-26T10:24:12.913Z,12264
2016-02-26T10:25:12.910Z,11912
2016-02-26T10:26:12.971Z,11420
2016-02-26T10:27:12.908Z,10940
2016-02-26T10:28:12.909Z,10516
2016-02-26T10:29:12.910Z,10112
2016-02-26T10:30:12.911Z,9776
2016-02-26T10:31:12.912Z,9612
2016-02-26T10:32:12.898Z,9408
2016-02-26T10:33:12.900Z,9292
2016-02-26T10:34:12.903Z,8896
2016-02-26T10:35:12.904Z,8416
2016-02-26T10:36:12.938Z,8168
2016-02-26T10:37:12.925Z,8088
2016-02-26T10:38:13.833Z,8080
2016-02-26T10:39:12.898Z,8324
2016-02-26T10:40:12.916Z,8748
2016-02-26T10:41:12.903Z,9344
2016-02-26T10:42:12.906Z,10216
2016-02-26T10:43:12.909Z,11268
2016-02-26T10:44:12.911Z,12616
2016-02-26T10:45:12.960Z,14176
2016-02-26T10:46:12.917Z,14796
2016-02-26T10:47:12.903Z,15056
2016-02-26T10:48:12.906Z,15420
2016-02-26T10:49:12.940Z,15772
2016-02-26T10:50:12.927Z,15908
2016-02-26T10:51:12.899Z,15676
2016-02-26T10:52:12.901Z,15320
2016-02-26T10:53:12.904Z,15296
2016-02-26T10:54:12.906Z,15476
2016-02-26T10:55:12.909Z,15700
2016-02-26T10:56:12.958Z,15528
2016-02-26T10:57:12.914Z,15288
2016-02-26T10:58:12.964Z,15084
2016-02-26T10:59:12.920Z,14900
2016-02-26T11:00:12.922Z,14692
2016-02-26T11:01:12.910Z,14356
2016-02-26T11:02:12.928Z,13680
2016-02-26T11:03:12.930Z,12932
2016-02-26T11:04:12.918Z,12364
2016-02-26T11:05:12.921Z,12012
2016-02-26T11:06:12.923Z,11740
2016-02-26T11:07:12.957Z,11508
2016-02-26T11:08:12.928Z,11240
2016-02-26T11:09:12.932Z,11040
2016-02-26T11:10:12.950Z,11068
2016-02-26T11:11:12.937Z,10968
2016-02-26T11:12:12.954Z,10876
2016-02-26T11:13:12.786Z,10868
2016-02-26T11:14:12.976Z,10972
2016-02-26T11:15:12.948Z,11220
2016-02-26T11:16:12.918Z,11456
2016-02-26T11:17:12.937Z,11708
2016-02-26T11:18:12.940Z,11972
2016-02-26T11:19:12.942Z,12348
2016-02-26T11:20:12.945Z,12920
2016-02-26T11:21:12.964Z,13520
2016-02-26T11:22:12.950Z,14040
2016-02-26T11:23:12.953Z,14484
2016-02-26T11:24:12.939Z,14800
2016-02-26T11:25:22.130Z,15088
2016-02-26T11:26:12.961Z,15272
2016-02-26T11:27:13.027Z,15384
2016-02-26T11:28:12.966Z,15396
2016-02-26T11:29:13.283Z,15220
2016-02-26T11:30:12.956Z,14828
2016-02-26T11:31:13.022Z,14616
2016-02-26T11:32:12.993Z,14080
2016-02-26T11:33:12.949Z,13092
2016-02-26T11:34:13.030Z,11744
2016-02-26T11:35:12.954Z,10404
2016-02-26T11:36:12.988Z,9524
2016-02-26T11:37:12.975Z,8984
2016-02-26T11:38:12.978Z,8472
2016-02-26T11:39:13.560Z,7996
2016-02-26T11:40:14.140Z,7628
2016-02-26T11:41:12.970Z,7388
2016-02-26T11:42:12.974Z,7292
2016-02-26T11:43:13.007Z,7316
2016-02-26T11:44:13.026Z,7396
2016-02-26T11:45:12.981Z,7608
2016-02-26T11:46:12.968Z,7988
2016-02-26T11:47:13.002Z,8432
2016-02-26T11:48:12.974Z,8792
2016-02-26T11:49:12.976Z,9024
2016-02-26T11:50:13.072Z,9328
2016-02-26T11:51:12.982Z,9776
2016-02-26T11:52:13.000Z,10204
2016-02-26T11:53:13.003Z,10296
2016-02-26T11:54:13.021Z,9952
2016-02-26T11:55:13.056Z,9436
2016-02-26T11:56:13.230Z,8968
2016-02-26T11:57:13.029Z,8496
2016-02-26T11:58:12.985Z,7972
2016-02-26T11:59:13.003Z,7544
2016-02-26T12:00:13.022Z,7248
2016-02-26T12:01:13.008Z,7136
2016-02-26T12:02:12.996Z,7240
2016-02-26T12:03:13.014Z,7488
2016-02-26T12:04:13.001Z,7896
2016-02-26T12:05:13.004Z,8424
2016-02-26T12:06:13.007Z,8936
2016-02-26T12:07:13.025Z,9364
2016-02-26T12:08:13.027Z,9740
2016-02-26T12:09:13.015Z,9936
2016-02-26T12:10:13.017Z,10028
2016-02-26T12:11:13.020Z,10000
2016-02-26T12:12:13.007Z,9808
2016-02-26T12:13:13.103Z,9288
2016-02-26T12:14:13.012Z,8600
2016-02-26T12:15:13.015Z,7904
2016-02-26T12:16:13.018Z,7272
2016-02-26T12:17:13.082Z,6528
2016-02-26T12:18:13.007Z,5860
2016-02-26T12:19:13.010Z,5364
2016-02-26T12:20:13.700Z,5072
2016-02-26T12:21:13.031Z,4976
2016-02-26T12:22:13.018Z,4988
2016-02-26T12:23:13.020Z,5056
2016-02-26T12:24:12.539Z,5144
2016-02-26T12:25:12.886Z,5284
2016-02-26T12:26:12.561Z,5468
2016-02-26T12:27:13.016Z,5760
2016-02-26T12:28:12.972Z,6080
2016-02-26T12:29:13.022Z,6384
2016-02-26T12:30:13.102Z,6712
2016-02-26T12:31:13.011Z,7032
2016-02-26T12:32:13.045Z,7328
2016-02-26T12:33:13.017Z,7592
2016-02-26T12:34:13.035Z,7952
2016-02-26T12:35:13.053Z,8520
2016-02-26T12:36:13.024Z,9260
2016-02-26T12:37:13.058Z,10080
2016-02-26T12:38:13.030Z,11048
2016-02-26T12:39:13.033Z,11964
2016-02-26T12:40:13.019Z,12560
2016-02-26T12:41:13.038Z,12720
2016-02-26T12:42:13.963Z,12660
2016-02-26T12:43:13.153Z,12472
2016-02-26T12:44:13.030Z,12416
2016-02-26T12:45:13.143Z,12644
2016-02-26T12:46:17.801Z,12924
2016-02-26T12:47:13.523Z,13196
2016-02-26T12:48:13.291Z,13488
2016-02-26T12:49:13.590Z,13752
2016-02-26T12:50:13.031Z,14104
2016-02-26T12:51:13.034Z,14528
2016-02-26T12:52:13.037Z,14652
2016-02-26T12:53:13.070Z,14556
2016-02-26T12:54:13.026Z,14420
2016-02-26T12:55:13.045Z,14252
2016-02-26T12:56:13.062Z,14068
2016-02-26T12:57:14.003Z,13888
2016-02-26T12:58:14.131Z,13796
2016-02-26T12:59:13.852Z,13520
2016-02-26T13:00:13.058Z,13412
2016-02-26T13:01:13.733Z,13504
2016-02-26T13:02:13.375Z,13560
2016-02-26T13:03:13.036Z,13644
2016-02-26T13:04:13.802Z,13720
2016-02-26T13:05:13.055Z,13688
2016-02-26T13:06:13.058Z,13456
2016-02-26T13:07:13.092Z,13104
2016-02-26T13:08:13.048Z,12568
2016-02-26T13:09:13.066Z,12092
2016-02-26T13:10:13.069Z,11824
2016-02-26T13:11:13.071Z,11720
2016-02-26T13:12:13.137Z,11640
2016-02-26T13:13:13.093Z,11656
2016-02-26T13:14:13.064Z,11624
2016-02-26T13:15:13.129Z,11568
2016-02-26T13:16:13.085Z,11636
2016-02-26T13:17:12.604Z,11628
2016-02-26T13:18:13.528Z,11672
2016-02-26T13:19:13.250Z,11852
2016-02-26T13:20:13.206Z,11876
2016-02-26T13:21:13.598Z,11888
2016-02-26T13:22:13.117Z,12008
2016-02-26T13:23:13.431Z,12128
2016-02-26T13:24:13.263Z,12236
2016-02-26T13:25:12.765Z,12368
2016-02-26T13:26:12.659Z,12372
2016-02-26T13:27:13.270Z,12276
2016-02-26T13:28:13.289Z,12216
2016-02-26T13:29:13.277Z,12056
2016-02-26T13:30:13.279Z,11880
2016-02-26T13:31:13.344Z,11744
2016-02-26T13:32:13.800Z,11724
2016-02-26T13:33:13.162Z,11712
2016-02-26T13:34:13.119Z,11444
2016-02-26T13:35:14.153Z,11160
2016-02-26T13:36:13.124Z,10984
2016-02-26T13:37:13.345Z,10748
2016-02-26T13:38:14.816Z,10596
2016-02-26T13:39:13.100Z,10512
2016-02-26T13:40:14.322Z,10240
2016-02-26T13:41:13.138Z,9844
2016-02-26T13:42:17.905Z,9616
2016-02-26T13:43:13.143Z,9272
2016-02-26T13:44:13.134Z,9072
2016-02-26T13:45:13.137Z,8948
2016-02-26T13:46:13.140Z,9072
2016-02-26T13:47:13.143Z,9224